EDHI/XFW METAR and TAF weather

Enter ICAO airport designator
Station Type Date Time Source
EDHI METAR 2021/01/27 14:20 UTC NOAA

EDHI 271420Z 20008KT 170V230 9999 BKN018 03/M00 Q1008


Station Type Date Time Source
EDHI Decoded METAR 2021/01/27 14:20 UTC NOAA

Hamburg-Finkenwerder, Germany (EDHI) 53-32N 009-50E 13M
Jan 27, 2021 - 09:20 AM EST / 2021.01.27 1420 UTC
Wind: from the SSW (200 degrees) at 9 MPH (8 KT) (direction variable):0
Visibility: greater than 7 mile(s):0
Sky conditions: mostly cloudy
Temperature: 37 F (3 C)
Dew Point: 32 F (0 C)
Relative Humidity: 80%
Pressure (altimeter): 29.77 in. Hg (1008 hPa)
ob: EDHI 271420Z 20008KT 170V230 9999 BKN018 03/M00 Q1008
cycle: 14

Station Type Date Time Source
EDHI TAF 2010/02/22 14:20 UTC NOAA

METAR EDHI 221420Z 17005KT 9999 BKN030 05/02 Q0989

Example: see airport list